01:53
Airports
Links
Donate
Help keep this website running!
PayPal
Bitcoin
METAR
RJTT 240130Z 12004KT 9999 FEW030 12/00 Q1013 NOSIG RMK 1CU030 A2994
Current Weather Conditions at RJTT
VFR 01:30:00 24-11-17
Altimeter:29.91 hg
Temp:12.0°c 54°f
Dew point:0.0°c 32°f
Wind:4 knots, 4.6 mph, 2 m/s, from 120°
Visibility:6.21 statute miles
3000(FEW) A few
No significant weather changes expected within 2 hours.
Past METAR reports
VFR 01:00:00 24-11-17
Altimeter:29.94 hg
Temp:12.0°c 54°f
Dew point:0.0°c 32°f
Wind:4 knots, 4.6 mph, 2 m/s, from 70°
Visibility:6.21 statute miles
3000(FEW) A few
No significant weather changes expected within 2 hours.
RJTT 240100Z 07004KT 030V100 9999 FEW030 12/M00 Q1014 NOSIG RMK 1CU030 A2995
VFR 00:30:00 24-11-17
Altimeter:29.94 hg
Temp:12.0°c 54°f
Dew point:0.0°c 32°f
Wind:3 knots, 3.5 mph, 2 m/s, from 30°
Visibility:6.21 statute miles
3000(FEW) A few
No significant weather changes expected within 2 hours.
RJTT 240030Z 03003KT 360V060 9999 FEW030 12/M00 Q1014 NOSIG RMK 1CU030 A2995 MOD TURB OBS AT 0013Z HILLS BTN 9000FT AND 10000FT IN CMB BY B787
VFR 00:00:00 24-11-17
Altimeter:29.94 hg
Temp:11.0°c 52°f
Dew point:0.0°c 32°f
Wind:3 knots, 3.5 mph, 2 m/s, from 40°
Visibility:6.21 statute miles
3000(FEW) A few
RJTT 240000Z 04003KT 9999 FEW030 11/M00 Q1014 BECMG 20006KT RMK 1CU030 A2995
VFR 23:30:00 23-11-17
Altimeter:29.94 hg
Temp:11.0°c 52°f
Dew point:-1.0°c 30°f
Wind:4 knots, 4.6 mph, 2 m/s, from 30°
Visibility:6.21 statute miles
5000(SCT) Scattered
3000(FEW) A few
RJTT 232330Z 03004KT 9999 FEW030 SCT050 11/M01 Q1014 BECMG 22006KT
VFR 23:00:00 23-11-17
Altimeter:29.94 hg
Temp:11.0°c 52°f
Dew point:0.0°c 32°f
Wind:5 knots, 5.8 mph, 3 m/s, from 20°
Visibility:6.21 statute miles
5000(BKN) Broken
2000(FEW) A few
RJTT 232300Z 02005KT 9999 FEW020 BKN050 11/M00 Q1014 BECMG 22006KT RMK 1CU020 6SC050 A2995
VFR 22:30:00 23-11-17
Altimeter:29.91 hg
Temp:10.0°c 50°f
Dew point:-1.0°c 30°f
Wind:3 knots, 3.5 mph, 2 m/s, from 20°
Visibility:6.21 statute miles
5000(BKN) Broken
2000(FEW) A few
No significant weather changes expected within 2 hours.
RJTT 232230Z 02003KT 350V050 9999 FEW020 BKN050 10/M01 Q1013 NOSIG RMK 1CU020 7SC050 A2994
TAF
TAF AMD RJTT 240110Z 2401/2506 08005KT 9999 FEW030 BECMG 2401/2403 20012KT BECMG 2404/2406 25004KT BECMG 2415/2418 22014KT BECMG 2421/2500 23004KT
Forecast at RJTT
01:00 24-11-17 to 06:00 25-11-17
Wind:5 Knots from 80°
Visibility:6.21 statute miles
3000FEW A few
BECMG 01:00 24-11-17 to 04:00 24-11-17
Wind:12 Knots from 200°
Visibility:6.21 statute miles
3000FEW A few
BECMG 04:00 24-11-17 to 15:00 24-11-17
Wind:4 Knots from 250°
Visibility:6.21 statute miles
3000FEW A few
BECMG 15:00 24-11-17 to 21:00 24-11-17
Wind:14 Knots from 220°
Visibility:6.21 statute miles
3000FEW A few
BECMG 21:00 24-11-17 to 06:00 25-11-17
Wind:4 Knots from 230°
Visibility:6.21 statute miles
3000FEW A few